Hovedside
METAR-TAF:

METAR-TAF

Lufthavner :

Bahrain, Bahrain

breddegrad: 26-16N, lengdegrad: 050-39E, høyde over havet: 2 m

Gjeldene værobservasjon

Denne rapporten ble laget for 22 minutter siden, klokken 17:00 UTC
Vind 8 kt fra Nordvest
Temperatur 35°C
Luftfuktighet 47%
Trykk 997 hPa
Sikt 10 km eller mer
ingen skyer under 1500 m og ingen bygeskyer

METAR: OBBI 231700Z 32008KT CAVOK 35/22 Q0997 NOSIG

Tid: 20:22 (17:22 UTC)

Varsel

Denne rapporten ble laget for 6 timer og 22 minutter siden, klokken 11:00 UTC
Varsel gyldig fra 23. klokken 12 UTC til 24. klokken 18 UTC
Vind 13 kt fra Nord-nordvest med vindkast opp mot 23 kt
Sikt 10 km eller mer
ingen skyer under 1500 m og ingen bygeskyer
Blir
fra 23. klokken 14 UTC til 23. klokken 16 UTC
Vind 10 kt fra Nord-nordvest

TAF: OBBI 231100Z 2312/2418 34013G23KT CAVOK BECMG 2314/2316 33010KT

Værobservasjoner og værvarsel for over 4000 flyplasser (METAR- og TAF-rapporter).

Tilgjengelige stasjoner er representert av de røde og gule prikkene på kartet.

Hold musepekeren over prikken for å se navnet på stasjonen.

Klikk så for å se værobservasjoner og -varsler.

For å forandre kartet kan du klikke på den grønne knappen med svart kryss for å zoome inn, på den grønne knappen med strek for å zoome ut, eller på de grønne pilene for å se tilstøtende kart.


METAR-TAF: